sensor_id;sensor_type;location;lat;lon;timestamp;P1;durP1;ratioP1;P2;durP2;ratioP2
78288;SDS011;67539;48.752;12.922;2023-05-10T00:01:13;6.17;;;5.57;;
78288;SDS011;67539;48.752;12.922;2023-05-10T00:03:42;6.63;;;6.00;;
78288;SDS011;67539;48.752;12.922;2023-05-10T00:06:10;6.30;;;5.80;;
78288;SDS011;67539;48.752;12.922;2023-05-10T00:08:38;7.30;;;6.60;;
78288;SDS011;67539;48.752;12.922;2023-05-10T00:11:07;6.70;;;6.03;;
78288;SDS011;67539;48.752;12.922;2023-05-10T00:13:36;7.37;;;6.67;;
78288;SDS011;67539;48.752;12.922;2023-05-10T00:16:04;7.20;;;6.60;;
78288;SDS011;67539;48.752;12.922;2023-05-10T00:18:32;7.20;;;6.60;;
78288;SDS011;67539;48.752;12.922;2023-05-10T00:21:01;8.33;;;7.63;;
78288;SDS011;67539;48.752;12.922;2023-05-10T00:23:29;7.53;;;6.83;;
78288;SDS011;67539;48.752;12.922;2023-05-10T00:25:57;7.67;;;6.97;;
78288;SDS011;67539;48.752;12.922;2023-05-10T00:28:28;7.60;;;6.90;;
78288;SDS011;67539;48.752;12.922;2023-05-10T00:30:56;7.47;;;6.87;;
78288;SDS011;67539;48.752;12.922;2023-05-10T00:33:24;9.10;;;7.03;;
78288;SDS011;67539;48.752;12.922;2023-05-10T00:35:52;6.93;;;6.33;;
78288;SDS011;67539;48.752;12.922;2023-05-10T00:38:20;7.47;;;6.87;;
78288;SDS011;67539;48.752;12.922;2023-05-10T00:40:49;7.60;;;6.73;;
78288;SDS011;67539;48.752;12.922;2023-05-10T00:43:24;7.47;;;6.73;;
78288;SDS011;67539;48.752;12.922;2023-05-10T00:45:53;7.50;;;6.67;;
78288;SDS011;67539;48.752;12.922;2023-05-10T00:48:22;7.90;;;7.20;;
78288;SDS011;67539;48.752;12.922;2023-05-10T00:50:50;7.30;;;6.70;;
78288;SDS011;67539;48.752;12.922;2023-05-10T00:53:18;7.10;;;6.40;;
78288;SDS011;67539;48.752;12.922;2023-05-10T00:55:46;7.20;;;6.60;;
78288;SDS011;67539;48.752;12.922;2023-05-10T00:58:15;8.50;;;6.87;;
78288;SDS011;67539;48.752;12.922;2023-05-10T01:00:43;7.67;;;6.97;;
78288;SDS011;67539;48.752;12.922;2023-05-10T01:03:16;7.00;;;6.40;;
78288;SDS011;67539;48.752;12.922;2023-05-10T01:05:44;7.03;;;6.43;;
78288;SDS011;67539;48.752;12.922;2023-05-10T01:08:13;7.20;;;6.50;;
78288;SDS011;67539;48.752;12.922;2023-05-10T01:10:41;7.23;;;6.53;;
78288;SDS011;67539;48.752;12.922;2023-05-10T01:13:10;8.03;;;7.20;;
78288;SDS011;67539;48.752;12.922;2023-05-10T01:15:40;7.73;;;6.73;;
78288;SDS011;67539;48.752;12.922;2023-05-10T01:18:08;7.50;;;6.80;;
78288;SDS011;67539;48.752;12.922;2023-05-10T01:20:39;7.07;;;6.50;;
78288;SDS011;67539;48.752;12.922;2023-05-10T01:23:13;6.37;;;5.87;;
78288;SDS011;67539;48.752;12.922;2023-05-10T01:32:15;7.93;;;7.20;;
78288;SDS011;67539;48.752;12.922;2023-05-10T01:34:52;7.50;;;6.70;;
78288;SDS011;67539;48.752;12.922;2023-05-10T01:37:28;7.47;;;6.77;;
78288;SDS011;67539;48.752;12.922;2023-05-10T01:40:03;8.07;;;7.17;;
78288;SDS011;67539;48.752;12.922;2023-05-10T01:42:44;9.50;;;7.23;;
78288;SDS011;67539;48.752;12.922;2023-05-10T01:45:20;7.87;;;7.10;;
78288;SDS011;67539;48.752;12.922;2023-05-10T01:47:57;9.90;;;7.70;;
78288;SDS011;67539;48.752;12.922;2023-05-10T01:50:32;8.07;;;7.37;;
78288;SDS011;67539;48.752;12.922;2023-05-10T01:53:01;9.80;;;7.60;;
78288;SDS011;67539;48.752;12.922;2023-05-10T01:55:34;9.63;;;8.23;;
78288;SDS011;67539;48.752;12.922;2023-05-10T01:58:07;7.87;;;7.17;;
78288;SDS011;67539;48.752;12.922;2023-05-10T02:00:37;7.77;;;6.93;;
78288;SDS011;67539;48.752;12.922;2023-05-10T02:03:11;8.23;;;7.37;;
78288;SDS011;67539;48.752;12.922;2023-05-10T02:05:41;8.67;;;7.87;;
78288;SDS011;67539;48.752;12.922;2023-05-10T02:08:12;10.50;;;7.70;;
78288;SDS011;67539;48.752;12.922;2023-05-10T02:10:42;7.73;;;7.03;;
78288;SDS011;67539;48.752;12.922;2023-05-10T02:13:12;7.90;;;7.20;;
78288;SDS011;67539;48.752;12.922;2023-05-10T02:15:41;8.50;;;7.60;;
78288;SDS011;67539;48.752;12.922;2023-05-10T02:18:12;8.73;;;7.83;;
78288;SDS011;67539;48.752;12.922;2023-05-10T02:20:43;7.90;;;7.10;;
78288;SDS011;67539;48.752;12.922;2023-05-10T02:23:14;9.13;;;8.10;;
78288;SDS011;67539;48.752;12.922;2023-05-10T02:25:45;8.13;;;7.30;;
78288;SDS011;67539;48.752;12.922;2023-05-10T02:28:15;8.33;;;7.53;;
78288;SDS011;67539;48.752;12.922;2023-05-10T02:30:45;8.50;;;7.70;;
78288;SDS011;67539;48.752;12.922;2023-05-10T02:33:17;8.20;;;7.40;;
78288;SDS011;67539;48.752;12.922;2023-05-10T02:35:46;8.53;;;7.73;;
78288;SDS011;67539;48.752;12.922;2023-05-10T02:38:16;12.13;;;7.90;;
78288;SDS011;67539;48.752;12.922;2023-05-10T02:40:49;9.13;;;8.17;;
78288;SDS011;67539;48.752;12.922;2023-05-10T02:43:18;9.83;;;8.80;;
78288;SDS011;67539;48.752;12.922;2023-05-10T02:45:50;9.30;;;8.40;;
78288;SDS011;67539;48.752;12.922;2023-05-10T02:48:20;8.60;;;7.80;;
78288;SDS011;67539;48.752;12.922;2023-05-10T02:50:48;9.03;;;8.13;;
78288;SDS011;67539;48.752;12.922;2023-05-10T02:53:21;7.50;;;6.90;;
78288;SDS011;67539;48.752;12.922;2023-05-10T02:55:55;8.67;;;7.60;;
78288;SDS011;67539;48.752;12.922;2023-05-10T02:58:27;9.07;;;8.13;;
78288;SDS011;67539;48.752;12.922;2023-05-10T03:00:55;8.17;;;7.47;;
78288;SDS011;67539;48.752;12.922;2023-05-10T03:03:24;8.83;;;7.93;;
78288;SDS011;67539;48.752;12.922;2023-05-10T03:05:53;8.47;;;7.67;;
78288;SDS011;67539;48.752;12.922;2023-05-10T03:08:23;8.70;;;7.90;;
78288;SDS011;67539;48.752;12.922;2023-05-10T03:10:55;8.70;;;7.90;;
78288;SDS011;67539;48.752;12.922;2023-05-10T03:13:35;8.60;;;7.80;;
78288;SDS011;67539;48.752;12.922;2023-05-10T03:16:12;8.10;;;7.40;;
78288;SDS011;67539;48.752;12.922;2023-05-10T03:18:48;9.03;;;8.13;;
78288;SDS011;67539;48.752;12.922;2023-05-10T03:21:22;8.40;;;7.60;;
78288;SDS011;67539;48.752;12.922;2023-05-10T03:23:57;8.30;;;7.57;;
78288;SDS011;67539;48.752;12.922;2023-05-10T03:26:33;8.30;;;7.50;;
78288;SDS011;67539;48.752;12.922;2023-05-10T03:29:08;8.40;;;7.30;;
78288;SDS011;67539;48.752;12.922;2023-05-10T03:31:37;8.43;;;7.60;;
78288;SDS011;67539;48.752;12.922;2023-05-10T03:34:07;8.23;;;7.43;;
78288;SDS011;67539;48.752;12.922;2023-05-10T03:36:35;9.00;;;8.23;;
78288;SDS011;67539;48.752;12.922;2023-05-10T03:39:04;8.67;;;7.80;;
78288;SDS011;67539;48.752;12.922;2023-05-10T03:41:32;8.90;;;8.10;;
78288;SDS011;67539;48.752;12.922;2023-05-10T03:44:01;10.17;;;7.73;;
78288;SDS011;67539;48.752;12.922;2023-05-10T03:46:30;9.00;;;8.10;;
78288;SDS011;67539;48.752;12.922;2023-05-10T03:48:58;9.10;;;8.20;;
78288;SDS011;67539;48.752;12.922;2023-05-10T03:51:28;8.83;;;8.00;;
78288;SDS011;67539;48.752;12.922;2023-05-10T03:53:57;9.30;;;8.40;;
78288;SDS011;67539;48.752;12.922;2023-05-10T03:56:26;8.80;;;7.60;;
78288;SDS011;67539;48.752;12.922;2023-05-10T03:58:54;8.73;;;7.93;;
78288;SDS011;67539;48.752;12.922;2023-05-10T04:01:22;8.80;;;7.90;;
78288;SDS011;67539;48.752;12.922;2023-05-10T04:03:51;9.97;;;8.70;;
78288;SDS011;67539;48.752;12.922;2023-05-10T04:06:20;10.33;;;8.60;;
78288;SDS011;67539;48.752;12.922;2023-05-10T04:08:49;10.10;;;9.00;;
78288;SDS011;67539;48.752;12.922;2023-05-10T04:11:17;9.20;;;7.90;;
78288;SDS011;67539;48.752;12.922;2023-05-10T04:13:48;9.83;;;8.30;;
78288;SDS011;67539;48.752;12.922;2023-05-10T04:16:16;10.07;;;8.80;;
78288;SDS011;67539;48.752;12.922;2023-05-10T04:18:44;9.50;;;8.27;;
78288;SDS011;67539;48.752;12.922;2023-05-10T04:21:12;10.57;;;8.97;;
78288;SDS011;67539;48.752;12.922;2023-05-10T04:23:40;8.83;;;7.93;;
78288;SDS011;67539;48.752;12.922;2023-05-10T04:26:10;10.60;;;9.20;;
78288;SDS011;67539;48.752;12.922;2023-05-10T04:28:38;9.53;;;8.13;;
78288;SDS011;67539;48.752;12.922;2023-05-10T04:31:07;9.50;;;8.60;;
78288;SDS011;67539;48.752;12.922;2023-05-10T04:33:37;9.57;;;8.70;;
78288;SDS011;67539;48.752;12.922;2023-05-10T04:36:05;9.03;;;8.13;;
78288;SDS011;67539;48.752;12.922;2023-05-10T04:38:33;9.60;;;8.50;;
78288;SDS011;67539;48.752;12.922;2023-05-10T04:41:05;9.07;;;8.23;;
78288;SDS011;67539;48.752;12.922;2023-05-10T04:43:35;9.53;;;8.53;;
78288;SDS011;67539;48.752;12.922;2023-05-10T04:46:04;8.90;;;8.00;;
78288;SDS011;67539;48.752;12.922;2023-05-10T04:48:33;9.63;;;8.70;;
78288;SDS011;67539;48.752;12.922;2023-05-10T04:51:02;9.80;;;8.73;;
78288;SDS011;67539;48.752;12.922;2023-05-10T04:53:31;9.10;;;8.20;;
78288;SDS011;67539;48.752;12.922;2023-05-10T04:55:59;8.97;;;8.10;;
78288;SDS011;67539;48.752;12.922;2023-05-10T04:58:27;11.17;;;8.60;;
78288;SDS011;67539;48.752;12.922;2023-05-10T05:00:56;9.90;;;8.90;;
78288;SDS011;67539;48.752;12.922;2023-05-10T05:03:25;9.37;;;8.40;;
78288;SDS011;67539;48.752;12.922;2023-05-10T05:05:53;10.33;;;9.33;;
78288;SDS011;67539;48.752;12.922;2023-05-10T05:08:21;10.17;;;9.07;;
78288;SDS011;67539;48.752;12.922;2023-05-10T05:10:50;10.50;;;9.40;;
78288;SDS011;67539;48.752;12.922;2023-05-10T05:13:18;9.40;;;8.50;;
78288;SDS011;67539;48.752;12.922;2023-05-10T05:15:46;10.20;;;8.93;;
78288;SDS011;67539;48.752;12.922;2023-05-10T05:18:16;12.40;;;9.90;;
78288;SDS011;67539;48.752;12.922;2023-05-10T05:20:44;10.43;;;9.43;;
78288;SDS011;67539;48.752;12.922;2023-05-10T05:23:12;11.57;;;10.37;;
78288;SDS011;67539;48.752;12.922;2023-05-10T05:25:40;8.63;;;7.83;;
78288;SDS011;67539;48.752;12.922;2023-05-10T05:28:08;9.87;;;8.87;;
78288;SDS011;67539;48.752;12.922;2023-05-10T05:30:37;10.40;;;9.37;;
78288;SDS011;67539;48.752;12.922;2023-05-10T05:33:05;11.13;;;9.60;;
78288;SDS011;67539;48.752;12.922;2023-05-10T05:35:34;11.07;;;10.00;;
78288;SDS011;67539;48.752;12.922;2023-05-10T05:38:02;11.77;;;10.00;;
78288;SDS011;67539;48.752;12.922;2023-05-10T05:40:30;11.93;;;10.00;;
78288;SDS011;67539;48.752;12.922;2023-05-10T05:42:59;11.20;;;10.03;;
78288;SDS011;67539;48.752;12.922;2023-05-10T05:45:27;10.57;;;9.47;;
78288;SDS011;67539;48.752;12.922;2023-05-10T05:47:55;10.63;;;9.60;;
78288;SDS011;67539;48.752;12.922;2023-05-10T05:50:23;12.67;;;9.97;;
78288;SDS011;67539;48.752;12.922;2023-05-10T05:52:53;10.10;;;9.10;;
78288;SDS011;67539;48.752;12.922;2023-05-10T05:55:21;11.87;;;10.43;;
78288;SDS011;67539;48.752;12.922;2023-05-10T05:57:50;12.00;;;10.70;;
78288;SDS011;67539;48.752;12.922;2023-05-10T06:00:18;10.47;;;9.47;;
78288;SDS011;67539;48.752;12.922;2023-05-10T06:02:47;11.63;;;9.63;;
78288;SDS011;67539;48.752;12.922;2023-05-10T06:05:15;10.63;;;9.50;;
78288;SDS011;67539;48.752;12.922;2023-05-10T06:07:44;10.90;;;9.80;;
78288;SDS011;67539;48.752;12.922;2023-05-10T06:10:13;10.73;;;9.13;;
78288;SDS011;67539;48.752;12.922;2023-05-10T06:12:41;11.33;;;10.03;;
78288;SDS011;67539;48.752;12.922;2023-05-10T06:15:10;13.87;;;10.67;;
78288;SDS011;67539;48.752;12.922;2023-05-10T06:17:39;14.23;;;10.07;;
78288;SDS011;67539;48.752;12.922;2023-05-10T06:20:07;11.47;;;10.00;;
78288;SDS011;67539;48.752;12.922;2023-05-10T06:22:36;14.07;;;9.97;;
78288;SDS011;67539;48.752;12.922;2023-05-10T06:25:04;12.10;;;9.67;;
78288;SDS011;67539;48.752;12.922;2023-05-10T06:27:35;11.70;;;10.60;;
78288;SDS011;67539;48.752;12.922;2023-05-10T06:30:03;11.13;;;10.07;;
78288;SDS011;67539;48.752;12.922;2023-05-10T06:32:38;11.90;;;10.37;;
78288;SDS011;67539;48.752;12.922;2023-05-10T06:35:07;12.37;;;10.30;;
78288;SDS011;67539;48.752;12.922;2023-05-10T06:37:36;12.67;;;10.10;;
78288;SDS011;67539;48.752;12.922;2023-05-10T06:40:05;12.63;;;10.30;;
78288;SDS011;67539;48.752;12.922;2023-05-10T06:42:35;11.00;;;9.87;;
78288;SDS011;67539;48.752;12.922;2023-05-10T06:45:04;11.80;;;10.53;;
78288;SDS011;67539;48.752;12.922;2023-05-10T06:47:33;10.90;;;9.23;;
78288;SDS011;67539;48.752;12.922;2023-05-10T06:50:04;10.00;;;9.00;;
78288;SDS011;67539;48.752;12.922;2023-05-10T06:52:33;11.27;;;9.27;;
78288;SDS011;67539;48.752;12.922;2023-05-10T06:55:01;10.10;;;9.10;;
78288;SDS011;67539;48.752;12.922;2023-05-10T06:57:30;15.53;;;9.73;;
78288;SDS011;67539;48.752;12.922;2023-05-10T07:00:00;12.37;;;10.20;;
78288;SDS011;67539;48.752;12.922;2023-05-10T07:02:30;10.90;;;9.60;;
78288;SDS011;67539;48.752;12.922;2023-05-10T07:04:58;9.83;;;8.83;;
78288;SDS011;67539;48.752;12.922;2023-05-10T07:07:40;11.27;;;10.03;;
78288;SDS011;67539;48.752;12.922;2023-05-10T07:10:09;11.17;;;10.07;;
78288;SDS011;67539;48.752;12.922;2023-05-10T07:12:37;11.73;;;10.53;;
78288;SDS011;67539;48.752;12.922;2023-05-10T07:15:07;11.33;;;10.13;;
78288;SDS011;67539;48.752;12.922;2023-05-10T07:17:36;12.07;;;10.67;;
78288;SDS011;67539;48.752;12.922;2023-05-10T07:20:05;12.10;;;9.90;;
78288;SDS011;67539;48.752;12.922;2023-05-10T07:22:34;12.70;;;10.00;;
78288;SDS011;67539;48.752;12.922;2023-05-10T07:25:02;11.60;;;10.33;;
78288;SDS011;67539;48.752;12.922;2023-05-10T07:27:31;11.97;;;10.13;;
78288;SDS011;67539;48.752;12.922;2023-05-10T07:29:59;12.40;;;9.83;;
78288;SDS011;67539;48.752;12.922;2023-05-10T07:32:29;11.17;;;9.17;;
78288;SDS011;67539;48.752;12.922;2023-05-10T07:34:58;11.07;;;9.80;;
78288;SDS011;67539;48.752;12.922;2023-05-10T07:37:26;10.30;;;9.27;;
78288;SDS011;67539;48.752;12.922;2023-05-10T07:39:54;11.33;;;10.13;;
78288;SDS011;67539;48.752;12.922;2023-05-10T07:42:22;12.50;;;10.37;;
78288;SDS011;67539;48.752;12.922;2023-05-10T07:44:50;11.40;;;10.30;;
78288;SDS011;67539;48.752;12.922;2023-05-10T07:47:18;12.40;;;10.30;;
78288;SDS011;67539;48.752;12.922;2023-05-10T07:49:48;11.53;;;10.33;;
78288;SDS011;67539;48.752;12.922;2023-05-10T07:52:16;12.43;;;11.07;;
78288;SDS011;67539;48.752;12.922;2023-05-10T07:54:47;13.03;;;10.40;;
78288;SDS011;67539;48.752;12.922;2023-05-10T07:57:15;11.80;;;10.70;;
78288;SDS011;67539;48.752;12.922;2023-05-10T07:59:43;11.10;;;9.93;;
78288;SDS011;67539;48.752;12.922;2023-05-10T08:02:12;11.47;;;10.37;;
78288;SDS011;67539;48.752;12.922;2023-05-10T08:04:40;11.90;;;10.70;;
78288;SDS011;67539;48.752;12.922;2023-05-10T08:07:09;13.80;;;12.30;;
78288;SDS011;67539;48.752;12.922;2023-05-10T08:09:38;11.53;;;10.33;;
78288;SDS011;67539;48.752;12.922;2023-05-10T08:12:06;13.60;;;12.30;;
78288;SDS011;67539;48.752;12.922;2023-05-10T08:14:34;12.53;;;11.23;;
78288;SDS011;67539;48.752;12.922;2023-05-10T08:17:03;12.83;;;11.53;;
78288;SDS011;67539;48.752;12.922;2023-05-10T08:19:31;12.67;;;11.37;;
78288;SDS011;67539;48.752;12.922;2023-05-10T08:21:59;10.83;;;9.83;;
78288;SDS011;67539;48.752;12.922;2023-05-10T08:24:28;11.57;;;10.47;;
78288;SDS011;67539;48.752;12.922;2023-05-10T08:26:57;11.27;;;10.17;;
78288;SDS011;67539;48.752;12.922;2023-05-10T08:29:25;11.40;;;10.20;;
78288;SDS011;67539;48.752;12.922;2023-05-10T08:31:55;10.33;;;9.30;;
78288;SDS011;67539;48.752;12.922;2023-05-10T08:34:24;10.57;;;9.47;;
78288;SDS011;67539;48.752;12.922;2023-05-10T08:36:52;11.27;;;9.37;;
78288;SDS011;67539;48.752;12.922;2023-05-10T08:39:20;10.60;;;9.37;;
78288;SDS011;67539;48.752;12.922;2023-05-10T08:41:57;11.80;;;10.27;;
78288;SDS011;67539;48.752;12.922;2023-05-10T08:44:29;11.50;;;9.93;;
78288;SDS011;67539;48.752;12.922;2023-05-10T08:46:59;11.13;;;9.97;;
78288;SDS011;67539;48.752;12.922;2023-05-10T08:49:29;19.90;;;17.67;;
78288;SDS011;67539;48.752;12.922;2023-05-10T08:51:59;11.23;;;10.13;;
78288;SDS011;67539;48.752;12.922;2023-05-10T08:54:32;12.47;;;11.17;;
78288;SDS011;67539;48.752;12.922;2023-05-10T08:57:02;12.87;;;10.60;;
78288;SDS011;67539;48.752;12.922;2023-05-10T08:59:30;11.77;;;10.40;;
78288;SDS011;67539;48.752;12.922;2023-05-10T09:01:59;10.33;;;9.43;;
78288;SDS011;67539;48.752;12.922;2023-05-10T09:04:27;12.80;;;11.50;;
78288;SDS011;67539;48.752;12.922;2023-05-10T09:06:57;11.47;;;9.83;;
78288;SDS011;67539;48.752;12.922;2023-05-10T09:09:25;12.03;;;9.80;;
78288;SDS011;67539;48.752;12.922;2023-05-10T09:11:55;12.07;;;10.77;;
78288;SDS011;67539;48.752;12.922;2023-05-10T09:14:25;11.67;;;10.50;;
78288;SDS011;67539;48.752;12.922;2023-05-10T09:16:54;10.90;;;9.17;;
78288;SDS011;67539;48.752;12.922;2023-05-10T09:19:22;10.93;;;9.80;;
78288;SDS011;67539;48.752;12.922;2023-05-10T09:21:51;11.93;;;10.40;;
78288;SDS011;67539;48.752;12.922;2023-05-10T09:24:19;19.20;;;10.57;;
78288;SDS011;67539;48.752;12.922;2023-05-10T09:26:52;11.00;;;9.90;;
78288;SDS011;67539;48.752;12.922;2023-05-10T09:29:20;11.30;;;10.23;;
78288;SDS011;67539;48.752;12.922;2023-05-10T09:31:50;9.37;;;8.47;;
78288;SDS011;67539;48.752;12.922;2023-05-10T09:34:22;11.30;;;10.20;;
78288;SDS011;67539;48.752;12.922;2023-05-10T09:36:57;10.83;;;9.73;;
78288;SDS011;67539;48.752;12.922;2023-05-10T09:39:31;10.33;;;9.33;;
78288;SDS011;67539;48.752;12.922;2023-05-10T09:42:01;10.00;;;9.00;;
78288;SDS011;67539;48.752;12.922;2023-05-10T09:44:31;10.67;;;9.57;;
78288;SDS011;67539;48.752;12.922;2023-05-10T09:47:01;11.27;;;10.27;;
78288;SDS011;67539;48.752;12.922;2023-05-10T09:49:29;11.70;;;9.50;;
78288;SDS011;67539;48.752;12.922;2023-05-10T09:52:01;11.20;;;10.20;;
78288;SDS011;67539;48.752;12.922;2023-05-10T09:54:30;13.47;;;12.07;;
78288;SDS011;67539;48.752;12.922;2023-05-10T09:56:59;11.27;;;10.17;;
78288;SDS011;67539;48.752;12.922;2023-05-10T09:59:28;11.27;;;9.47;;
78288;SDS011;67539;48.752;12.922;2023-05-10T10:01:57;11.40;;;9.70;;
78288;SDS011;67539;48.752;12.922;2023-05-10T10:04:28;11.37;;;10.27;;
78288;SDS011;67539;48.752;12.922;2023-05-10T10:07:00;10.47;;;9.40;;
78288;SDS011;67539;48.752;12.922;2023-05-10T10:09:29;11.20;;;10.00;;
78288;SDS011;67539;48.752;12.922;2023-05-10T10:11:58;11.20;;;10.10;;
78288;SDS011;67539;48.752;12.922;2023-05-10T10:14:28;10.70;;;9.70;;
78288;SDS011;67539;48.752;12.922;2023-05-10T10:16:57;12.80;;;9.17;;
78288;SDS011;67539;48.752;12.922;2023-05-10T10:19:34;10.10;;;9.10;;
78288;SDS011;67539;48.752;12.922;2023-05-10T10:22:03;10.53;;;9.53;;
78288;SDS011;67539;48.752;12.922;2023-05-10T10:24:32;10.33;;;9.40;;
78288;SDS011;67539;48.752;12.922;2023-05-10T10:27:07;10.43;;;9.43;;
78288;SDS011;67539;48.752;12.922;2023-05-10T10:29:45;11.77;;;10.60;;
78288;SDS011;67539;48.752;12.922;2023-05-10T10:32:20;10.27;;;9.27;;
78288;SDS011;67539;48.752;12.922;2023-05-10T10:34:55;10.27;;;9.27;;
78288;SDS011;67539;48.752;12.922;2023-05-10T10:37:23;9.37;;;8.47;;
78288;SDS011;67539;48.752;12.922;2023-05-10T10:40:24;10.63;;;9.63;;
78288;SDS011;67539;48.752;12.922;2023-05-10T10:46:10;8.10;;;7.40;;
78288;SDS011;67539;48.752;12.922;2023-05-10T10:48:47;8.77;;;7.87;;
78288;SDS011;67539;48.752;12.922;2023-05-10T10:51:17;9.13;;;8.23;;
78288;SDS011;67539;48.752;12.922;2023-05-10T10:53:47;9.60;;;8.80;;
78288;SDS011;67539;48.752;12.922;2023-05-10T10:56:15;9.30;;;8.40;;
78288;SDS011;67539;48.752;12.922;2023-05-10T10:58:51;9.77;;;7.60;;
78288;SDS011;67539;48.752;12.922;2023-05-10T11:01:20;9.70;;;8.87;;
78288;SDS011;67539;48.752;12.922;2023-05-10T11:04:16;8.60;;;7.77;;
78288;SDS011;67539;48.752;12.922;2023-05-10T11:06:48;8.20;;;7.60;;
78288;SDS011;67539;48.752;12.922;2023-05-10T11:09:17;7.77;;;7.13;;
78288;SDS011;67539;48.752;12.922;2023-05-10T11:11:51;8.20;;;7.50;;
78288;SDS011;67539;48.752;12.922;2023-05-10T11:14:21;8.97;;;8.17;;
78288;SDS011;67539;48.752;12.922;2023-05-10T11:16:50;8.33;;;7.63;;
78288;SDS011;67539;48.752;12.922;2023-05-10T11:19:19;7.50;;;6.90;;
78288;SDS011;67539;48.752;12.922;2023-05-10T11:21:50;8.00;;;7.30;;
78288;SDS011;67539;48.752;12.922;2023-05-10T11:24:40;7.43;;;6.83;;
78288;SDS011;67539;48.752;12.922;2023-05-10T11:27:25;7.63;;;6.53;;
78288;SDS011;67539;48.752;12.922;2023-05-10T11:29:54;7.90;;;7.20;;
78288;SDS011;67539;48.752;12.922;2023-05-10T11:32:22;7.53;;;6.83;;
78288;SDS011;67539;48.752;12.922;2023-05-10T11:34:50;8.83;;;8.10;;
78288;SDS011;67539;48.752;12.922;2023-05-10T11:37:20;8.47;;;7.57;;
78288;SDS011;67539;48.752;12.922;2023-05-10T11:39:48;8.07;;;7.33;;
78288;SDS011;67539;48.752;12.922;2023-05-10T11:42:17;7.00;;;6.40;;
78288;SDS011;67539;48.752;12.922;2023-05-10T11:44:45;7.33;;;6.63;;
78288;SDS011;67539;48.752;12.922;2023-05-10T11:47:15;6.70;;;6.20;;
78288;SDS011;67539;48.752;12.922;2023-05-10T11:49:43;6.63;;;6.10;;
78288;SDS011;67539;48.752;12.922;2023-05-10T11:52:12;6.03;;;5.60;;
78288;SDS011;67539;48.752;12.922;2023-05-10T11:54:46;6.27;;;5.77;;
78288;SDS011;67539;48.752;12.922;2023-05-10T11:57:20;6.93;;;5.67;;
78288;SDS011;67539;48.752;12.922;2023-05-10T11:59:53;7.50;;;6.80;;
78288;SDS011;67539;48.752;12.922;2023-05-10T12:02:22;6.97;;;6.33;;
78288;SDS011;67539;48.752;12.922;2023-05-10T12:04:51;6.27;;;5.77;;
78288;SDS011;67539;48.752;12.922;2023-05-10T12:07:19;7.20;;;6.60;;
78288;SDS011;67539;48.752;12.922;2023-05-10T12:12:37;7.17;;;6.57;;
78288;SDS011;67539;48.752;12.922;2023-05-10T12:15:11;7.33;;;6.63;;
78288;SDS011;67539;48.752;12.922;2023-05-10T12:17:44;7.07;;;6.47;;
78288;SDS011;67539;48.752;12.922;2023-05-10T12:20:17;6.00;;;5.50;;
78288;SDS011;67539;48.752;12.922;2023-05-10T12:22:49;7.33;;;6.63;;
78288;SDS011;67539;48.752;12.922;2023-05-10T12:25:20;6.60;;;6.10;;
78288;SDS011;67539;48.752;12.922;2023-05-10T12:27:53;6.90;;;6.30;;
78288;SDS011;67539;48.752;12.922;2023-05-10T12:30:23;5.67;;;5.23;;
78288;SDS011;67539;48.752;12.922;2023-05-10T12:32:53;6.30;;;5.90;;
78288;SDS011;67539;48.752;12.922;2023-05-10T12:35:31;5.50;;;5.10;;
78288;SDS011;67539;48.752;12.922;2023-05-10T12:38:00;6.20;;;5.77;;
78288;SDS011;67539;48.752;12.922;2023-05-10T12:40:50;5.47;;;5.07;;
78288;SDS011;67539;48.752;12.922;2023-05-10T12:43:18;5.87;;;5.47;;
78288;SDS011;67539;48.752;12.922;2023-05-10T12:45:47;6.03;;;5.50;;
78288;SDS011;67539;48.752;12.922;2023-05-10T12:48:15;6.37;;;5.90;;
78288;SDS011;67539;48.752;12.922;2023-05-10T12:50:43;6.07;;;5.60;;
78288;SDS011;67539;48.752;12.922;2023-05-10T12:53:12;5.77;;;5.40;;
78288;SDS011;67539;48.752;12.922;2023-05-10T12:55:42;4.90;;;4.60;;
78288;SDS011;67539;48.752;12.922;2023-05-10T12:58:11;5.33;;;4.93;;
78288;SDS011;67539;48.752;12.922;2023-05-10T13:00:59;4.50;;;4.23;;
78288;SDS011;67539;48.752;12.922;2023-05-10T13:03:28;4.30;;;4.00;;
78288;SDS011;67539;48.752;12.922;2023-05-10T13:05:56;5.73;;;4.40;;
78288;SDS011;67539;48.752;12.922;2023-05-10T13:08:25;4.47;;;4.17;;
78288;SDS011;67539;48.752;12.922;2023-05-10T13:10:53;4.80;;;4.50;;
78288;SDS011;67539;48.752;12.922;2023-05-10T13:13:23;4.00;;;3.80;;
78288;SDS011;67539;48.752;12.922;2023-05-10T13:15:51;4.27;;;3.97;;
78288;SDS011;67539;48.752;12.922;2023-05-10T13:18:19;4.57;;;4.27;;
78288;SDS011;67539;48.752;12.922;2023-05-10T13:20:48;4.93;;;4.53;;
78288;SDS011;67539;48.752;12.922;2023-05-10T13:23:16;3.67;;;3.47;;
78288;SDS011;67539;48.752;12.922;2023-05-10T13:25:45;3.80;;;3.50;;
78288;SDS011;67539;48.752;12.922;2023-05-10T13:28:13;4.10;;;3.80;;
78288;SDS011;67539;48.752;12.922;2023-05-10T13:30:42;4.27;;;4.00;;
78288;SDS011;67539;48.752;12.922;2023-05-10T13:33:11;4.77;;;3.83;;
78288;SDS011;67539;48.752;12.922;2023-05-10T13:35:39;3.50;;;3.30;;
78288;SDS011;67539;48.752;12.922;2023-05-10T13:38:07;3.60;;;3.40;;
78288;SDS011;67539;48.752;12.922;2023-05-10T13:40:35;3.50;;;2.93;;
78288;SDS011;67539;48.752;12.922;2023-05-10T13:43:04;3.27;;;3.07;;
78288;SDS011;67539;48.752;12.922;2023-05-10T13:45:32;3.37;;;3.17;;
78288;SDS011;67539;48.752;12.922;2023-05-10T13:48:01;3.73;;;3.53;;
78288;SDS011;67539;48.752;12.922;2023-05-10T13:50:30;3.40;;;3.20;;
78288;SDS011;67539;48.752;12.922;2023-05-10T13:52:58;2.83;;;2.73;;
78288;SDS011;67539;48.752;12.922;2023-05-10T13:55:26;3.13;;;2.93;;
78288;SDS011;67539;48.752;12.922;2023-05-10T13:57:55;3.10;;;2.90;;
78288;SDS011;67539;48.752;12.922;2023-05-10T14:00:23;3.00;;;2.80;;
78288;SDS011;67539;48.752;12.922;2023-05-10T14:02:51;3.07;;;2.87;;
78288;SDS011;67539;48.752;12.922;2023-05-10T14:05:21;2.97;;;2.87;;
78288;SDS011;67539;48.752;12.922;2023-05-10T14:07:51;2.40;;;2.30;;
78288;SDS011;67539;48.752;12.922;2023-05-10T14:10:20;3.33;;;2.80;;
78288;SDS011;67539;48.752;12.922;2023-05-10T14:12:49;3.27;;;3.07;;
78288;SDS011;67539;48.752;12.922;2023-05-10T14:15:17;2.97;;;2.87;;
78288;SDS011;67539;48.752;12.922;2023-05-10T14:17:45;2.80;;;2.70;;
78288;SDS011;67539;48.752;12.922;2023-05-10T14:20:14;3.00;;;2.80;;
78288;SDS011;67539;48.752;12.922;2023-05-10T14:22:44;3.63;;;3.40;;
78288;SDS011;67539;48.752;12.922;2023-05-10T14:25:12;3.10;;;2.90;;
78288;SDS011;67539;48.752;12.922;2023-05-10T14:27:42;3.23;;;3.13;;
78288;SDS011;67539;48.752;12.922;2023-05-10T14:30:10;3.43;;;2.50;;
78288;SDS011;67539;48.752;12.922;2023-05-10T14:32:39;3.90;;;3.70;;
78288;SDS011;67539;48.752;12.922;2023-05-10T14:35:08;3.37;;;3.27;;
78288;SDS011;67539;48.752;12.922;2023-05-10T14:37:38;5.87;;;5.47;;
78288;SDS011;67539;48.752;12.922;2023-05-10T14:40:09;5.77;;;5.37;;
78288;SDS011;67539;48.752;12.922;2023-05-10T14:42:38;7.20;;;6.60;;
78288;SDS011;67539;48.752;12.922;2023-05-10T14:45:07;8.03;;;7.23;;
78288;SDS011;67539;48.752;12.922;2023-05-10T14:47:36;6.73;;;6.13;;
78288;SDS011;67539;48.752;12.922;2023-05-10T14:50:05;6.43;;;5.83;;
78288;SDS011;67539;48.752;12.922;2023-05-10T14:52:33;6.37;;;5.87;;
78288;SDS011;67539;48.752;12.922;2023-05-10T14:55:02;6.50;;;5.87;;